sensor_id;sensor_type;location;lat;lon;timestamp;P1;durP1;ratioP1;P2;durP2;ratioP2
75499;SDS011;64076;51.466;7.260;2023-02-12T00:00:54;24.50;;;19.30;;
75499;SDS011;64076;51.466;7.260;2023-02-12T00:03:20;25.50;;;19.73;;
75499;SDS011;64076;51.466;7.260;2023-02-12T00:05:45;23.33;;;18.48;;
75499;SDS011;64076;51.466;7.260;2023-02-12T00:08:11;25.00;;;18.40;;
75499;SDS011;64076;51.466;7.260;2023-02-12T00:10:41;24.55;;;18.10;;
75499;SDS011;64076;51.466;7.260;2023-02-12T00:13:09;23.67;;;18.75;;
75499;SDS011;64076;51.466;7.260;2023-02-12T00:15:39;25.30;;;19.10;;
75499;SDS011;64076;51.466;7.260;2023-02-12T00:18:05;23.35;;;18.35;;
75499;SDS011;64076;51.466;7.260;2023-02-12T00:20:31;23.10;;;17.80;;
75499;SDS011;64076;51.466;7.260;2023-02-12T00:22:56;23.83;;;18.07;;
75499;SDS011;64076;51.466;7.260;2023-02-12T00:25:22;23.37;;;18.00;;
75499;SDS011;64076;51.466;7.260;2023-02-12T00:27:47;26.52;;;19.35;;
75499;SDS011;64076;51.466;7.260;2023-02-12T00:30:13;22.33;;;18.37;;
75499;SDS011;64076;51.466;7.260;2023-02-12T00:32:39;22.35;;;17.77;;
75499;SDS011;64076;51.466;7.260;2023-02-12T00:35:05;22.53;;;18.53;;
75499;SDS011;64076;51.466;7.260;2023-02-12T00:37:30;22.83;;;17.80;;
75499;SDS011;64076;51.466;7.260;2023-02-12T00:39:56;22.88;;;18.05;;
75499;SDS011;64076;51.466;7.260;2023-02-12T00:42:21;24.93;;;18.40;;
75499;SDS011;64076;51.466;7.260;2023-02-12T00:44:47;22.80;;;17.47;;
75499;SDS011;64076;51.466;7.260;2023-02-12T00:47:12;23.50;;;17.90;;
75499;SDS011;64076;51.466;7.260;2023-02-12T00:49:38;22.55;;;17.45;;
75499;SDS011;64076;51.466;7.260;2023-02-12T00:52:06;21.90;;;17.58;;
75499;SDS011;64076;51.466;7.260;2023-02-12T00:54:32;22.87;;;16.60;;
75499;SDS011;64076;51.466;7.260;2023-02-12T00:56:57;23.07;;;17.67;;
75499;SDS011;64076;51.466;7.260;2023-02-12T00:59:23;23.85;;;17.80;;
75499;SDS011;64076;51.466;7.260;2023-02-12T01:01:50;23.73;;;18.23;;
75499;SDS011;64076;51.466;7.260;2023-02-12T01:04:19;23.90;;;17.53;;
75499;SDS011;64076;51.466;7.260;2023-02-12T01:06:45;22.77;;;17.30;;
75499;SDS011;64076;51.466;7.260;2023-02-12T01:09:11;23.00;;;17.65;;
75499;SDS011;64076;51.466;7.260;2023-02-12T01:11:37;22.25;;;17.95;;
75499;SDS011;64076;51.466;7.260;2023-02-12T01:14:02;23.40;;;17.80;;
75499;SDS011;64076;51.466;7.260;2023-02-12T01:16:29;24.40;;;18.60;;
75499;SDS011;64076;51.466;7.260;2023-02-12T01:19:00;23.33;;;17.88;;
75499;SDS011;64076;51.466;7.260;2023-02-12T01:21:27;23.55;;;18.55;;
75499;SDS011;64076;51.466;7.260;2023-02-12T01:23:54;22.25;;;17.92;;
75499;SDS011;64076;51.466;7.260;2023-02-12T01:26:21;24.13;;;17.73;;
75499;SDS011;64076;51.466;7.260;2023-02-12T01:28:51;22.83;;;17.75;;
75499;SDS011;64076;51.466;7.260;2023-02-12T01:31:19;23.77;;;18.20;;
75499;SDS011;64076;51.466;7.260;2023-02-12T01:33:46;22.13;;;17.88;;
75499;SDS011;64076;51.466;7.260;2023-02-12T01:36:13;23.13;;;17.20;;
75499;SDS011;64076;51.466;7.260;2023-02-12T01:38:39;22.43;;;16.87;;
75499;SDS011;64076;51.466;7.260;2023-02-12T01:41:06;22.25;;;17.52;;
75499;SDS011;64076;51.466;7.260;2023-02-12T01:43:33;22.03;;;17.13;;
75499;SDS011;64076;51.466;7.260;2023-02-12T01:46:00;22.95;;;17.58;;
75499;SDS011;64076;51.466;7.260;2023-02-12T01:48:27;24.08;;;17.10;;
75499;SDS011;64076;51.466;7.260;2023-02-12T01:50:56;23.52;;;17.17;;
75499;SDS011;64076;51.466;7.260;2023-02-12T01:53:23;24.27;;;17.73;;
75499;SDS011;64076;51.466;7.260;2023-02-12T01:55:54;22.10;;;17.10;;
75499;SDS011;64076;51.466;7.260;2023-02-12T01:58:22;21.73;;;16.70;;
75499;SDS011;64076;51.466;7.260;2023-02-12T02:00:49;21.95;;;18.10;;
75499;SDS011;64076;51.466;7.260;2023-02-12T02:03:15;23.63;;;17.17;;
75499;SDS011;64076;51.466;7.260;2023-02-12T02:08:10;24.27;;;17.17;;
75499;SDS011;64076;51.466;7.260;2023-02-12T02:10:36;23.30;;;17.75;;
75499;SDS011;64076;51.466;7.260;2023-02-12T02:13:02;21.95;;;17.98;;
75499;SDS011;64076;51.466;7.260;2023-02-12T02:15:48;21.17;;;16.90;;
75499;SDS011;64076;51.466;7.260;2023-02-12T02:18:21;21.20;;;16.85;;
75499;SDS011;64076;51.466;7.260;2023-02-12T02:21:11;23.00;;;17.87;;
75499;SDS011;64076;51.466;7.260;2023-02-12T02:39:18;21.73;;;16.90;;
75499;SDS011;64076;51.466;7.260;2023-02-12T02:44:52;22.95;;;16.65;;
75499;SDS011;64076;51.466;7.260;2023-02-12T02:47:39;22.50;;;17.20;;
75499;SDS011;64076;51.466;7.260;2023-02-12T02:50:07;20.83;;;16.23;;
75499;SDS011;64076;51.466;7.260;2023-02-12T02:52:36;21.67;;;16.55;;
75499;SDS011;64076;51.466;7.260;2023-02-12T02:55:04;21.63;;;17.00;;
75499;SDS011;64076;51.466;7.260;2023-02-12T02:57:34;22.55;;;16.58;;
75499;SDS011;64076;51.466;7.260;2023-02-12T03:00:07;21.83;;;16.40;;
75499;SDS011;64076;51.466;7.260;2023-02-12T03:02:37;21.58;;;17.33;;
75499;SDS011;64076;51.466;7.260;2023-02-12T03:05:08;20.65;;;17.02;;
75499;SDS011;64076;51.466;7.260;2023-02-12T03:07:43;21.23;;;17.13;;
75499;SDS011;64076;51.466;7.260;2023-02-12T03:10:11;21.75;;;15.73;;
75499;SDS011;64076;51.466;7.260;2023-02-12T03:15:12;21.88;;;16.77;;
75499;SDS011;64076;51.466;7.260;2023-02-12T03:17:41;22.55;;;16.67;;
75499;SDS011;64076;51.466;7.260;2023-02-12T03:22:36;21.50;;;16.80;;
75499;SDS011;64076;51.466;7.260;2023-02-12T03:25:14;22.27;;;17.20;;
75499;SDS011;64076;51.466;7.260;2023-02-12T03:27:44;21.92;;;16.80;;
75499;SDS011;64076;51.466;7.260;2023-02-12T03:30:11;19.80;;;15.75;;
75499;SDS011;64076;51.466;7.260;2023-02-12T03:32:41;21.00;;;16.73;;
75499;SDS011;64076;51.466;7.260;2023-02-12T03:35:20;23.00;;;17.58;;
75499;SDS011;64076;51.466;7.260;2023-02-12T03:40:19;20.10;;;16.17;;
75499;SDS011;64076;51.466;7.260;2023-02-12T03:42:55;22.17;;;17.05;;
75499;SDS011;64076;51.466;7.260;2023-02-12T03:48:01;23.30;;;16.95;;
75499;SDS011;64076;51.466;7.260;2023-02-12T03:50:39;20.20;;;16.33;;
75499;SDS011;64076;51.466;7.260;2023-02-12T03:53:07;20.05;;;15.95;;
75499;SDS011;64076;51.466;7.260;2023-02-12T03:55:33;22.88;;;16.50;;
75499;SDS011;64076;51.466;7.260;2023-02-12T03:58:02;20.88;;;16.30;;
75499;SDS011;64076;51.466;7.260;2023-02-12T04:00:32;22.73;;;16.83;;
75499;SDS011;64076;51.466;7.260;2023-02-12T04:02:58;22.87;;;16.60;;
75499;SDS011;64076;51.466;7.260;2023-02-12T04:05:25;21.80;;;16.17;;
75499;SDS011;64076;51.466;7.260;2023-02-12T04:07:51;19.85;;;15.75;;
75499;SDS011;64076;51.466;7.260;2023-02-12T04:10:19;21.27;;;16.35;;
75499;SDS011;64076;51.466;7.260;2023-02-12T04:12:59;20.90;;;15.77;;
75499;SDS011;64076;51.466;7.260;2023-02-12T04:20:45;22.42;;;16.20;;
75499;SDS011;64076;51.466;7.260;2023-02-12T04:23:32;21.30;;;16.50;;
75499;SDS011;64076;51.466;7.260;2023-02-12T04:26:04;20.97;;;16.10;;
75499;SDS011;64076;51.466;7.260;2023-02-12T04:31:07;20.98;;;16.65;;
75499;SDS011;64076;51.466;7.260;2023-02-12T04:33:39;20.73;;;16.65;;
75499;SDS011;64076;51.466;7.260;2023-02-12T04:36:08;19.05;;;15.60;;
75499;SDS011;64076;51.466;7.260;2023-02-12T04:38:39;21.43;;;16.63;;
75499;SDS011;64076;51.466;7.260;2023-02-12T04:41:06;19.15;;;15.73;;
75499;SDS011;64076;51.466;7.260;2023-02-12T04:43:35;20.60;;;15.90;;
75499;SDS011;64076;51.466;7.260;2023-02-12T04:46:05;19.52;;;15.55;;
75499;SDS011;64076;51.466;7.260;2023-02-12T04:48:31;21.02;;;16.08;;
75499;SDS011;64076;51.466;7.260;2023-02-12T04:50:58;19.53;;;15.23;;
75499;SDS011;64076;51.466;7.260;2023-02-12T04:53:24;20.92;;;16.33;;
75499;SDS011;64076;51.466;7.260;2023-02-12T04:55:50;19.85;;;15.73;;
75499;SDS011;64076;51.466;7.260;2023-02-12T04:58:16;21.10;;;16.48;;
75499;SDS011;64076;51.466;7.260;2023-02-12T05:00:42;22.00;;;16.33;;
75499;SDS011;64076;51.466;7.260;2023-02-12T05:03:08;20.20;;;16.03;;
75499;SDS011;64076;51.466;7.260;2023-02-12T05:05:34;20.42;;;15.60;;
75499;SDS011;64076;51.466;7.260;2023-02-12T05:08:00;19.67;;;15.90;;
75499;SDS011;64076;51.466;7.260;2023-02-12T05:10:26;20.25;;;16.33;;
75499;SDS011;64076;51.466;7.260;2023-02-12T05:12:52;20.23;;;15.77;;
75499;SDS011;64076;51.466;7.260;2023-02-12T05:15:19;20.83;;;16.38;;
75499;SDS011;64076;51.466;7.260;2023-02-12T05:17:45;21.35;;;16.50;;
75499;SDS011;64076;51.466;7.260;2023-02-12T05:20:11;20.15;;;15.93;;
75499;SDS011;64076;51.466;7.260;2023-02-12T05:22:37;20.27;;;15.17;;
75499;SDS011;64076;51.466;7.260;2023-02-12T05:25:04;19.50;;;15.52;;
75499;SDS011;64076;51.466;7.260;2023-02-12T05:27:30;21.13;;;16.17;;
75499;SDS011;64076;51.466;7.260;2023-02-12T05:29:56;22.20;;;16.50;;
75499;SDS011;64076;51.466;7.260;2023-02-12T05:32:23;20.58;;;15.75;;
75499;SDS011;64076;51.466;7.260;2023-02-12T05:34:49;22.90;;;16.67;;
75499;SDS011;64076;51.466;7.260;2023-02-12T05:37:15;20.42;;;16.13;;
75499;SDS011;64076;51.466;7.260;2023-02-12T05:39:40;20.17;;;15.85;;
75499;SDS011;64076;51.466;7.260;2023-02-12T05:42:06;22.53;;;16.77;;
75499;SDS011;64076;51.466;7.260;2023-02-12T05:44:32;19.98;;;15.98;;
75499;SDS011;64076;51.466;7.260;2023-02-12T05:46:58;20.80;;;15.70;;
75499;SDS011;64076;51.466;7.260;2023-02-12T05:49:24;20.42;;;15.77;;
75499;SDS011;64076;51.466;7.260;2023-02-12T05:51:50;21.73;;;15.80;;
75499;SDS011;64076;51.466;7.260;2023-02-12T05:54:16;21.30;;;16.23;;
75499;SDS011;64076;51.466;7.260;2023-02-12T05:56:43;20.13;;;15.90;;
75499;SDS011;64076;51.466;7.260;2023-02-12T05:59:13;20.77;;;15.50;;
75499;SDS011;64076;51.466;7.260;2023-02-12T06:01:41;18.95;;;14.95;;
75499;SDS011;64076;51.466;7.260;2023-02-12T06:04:09;20.07;;;16.13;;
75499;SDS011;64076;51.466;7.260;2023-02-12T06:06:37;20.40;;;16.27;;
75499;SDS011;64076;51.466;7.260;2023-02-12T06:09:06;20.25;;;15.38;;
75499;SDS011;64076;51.466;7.260;2023-02-12T06:11:31;18.27;;;15.30;;
75499;SDS011;64076;51.466;7.260;2023-02-12T06:14:00;20.10;;;15.87;;
75499;SDS011;64076;51.466;7.260;2023-02-12T06:16:26;18.70;;;15.10;;
75499;SDS011;64076;51.466;7.260;2023-02-12T06:18:52;20.92;;;15.32;;
75499;SDS011;64076;51.466;7.260;2023-02-12T06:21:20;19.02;;;15.98;;
75499;SDS011;64076;51.466;7.260;2023-02-12T06:23:46;20.98;;;16.00;;
75499;SDS011;64076;51.466;7.260;2023-02-12T06:26:13;22.50;;;16.50;;
75499;SDS011;64076;51.466;7.260;2023-02-12T06:28:39;21.13;;;16.15;;
75499;SDS011;64076;51.466;7.260;2023-02-12T06:31:05;19.63;;;15.68;;
75499;SDS011;64076;51.466;7.260;2023-02-12T06:33:31;18.58;;;15.40;;
75499;SDS011;64076;51.466;7.260;2023-02-12T06:36:01;18.88;;;16.00;;
75499;SDS011;64076;51.466;7.260;2023-02-12T06:38:27;19.93;;;15.30;;
75499;SDS011;64076;51.466;7.260;2023-02-12T06:40:53;20.23;;;15.70;;
75499;SDS011;64076;51.466;7.260;2023-02-12T06:43:19;20.40;;;16.45;;
75499;SDS011;64076;51.466;7.260;2023-02-12T06:45:45;20.10;;;16.23;;
75499;SDS011;64076;51.466;7.260;2023-02-12T06:48:11;19.98;;;15.30;;
75499;SDS011;64076;51.466;7.260;2023-02-12T06:50:37;21.17;;;16.52;;
75499;SDS011;64076;51.466;7.260;2023-02-12T06:53:03;19.60;;;15.45;;
75499;SDS011;64076;51.466;7.260;2023-02-12T06:55:28;19.17;;;15.40;;
75499;SDS011;64076;51.466;7.260;2023-02-12T06:57:54;20.65;;;16.35;;
75499;SDS011;64076;51.466;7.260;2023-02-12T07:00:20;19.40;;;15.63;;
75499;SDS011;64076;51.466;7.260;2023-02-12T07:02:51;19.23;;;15.47;;
75499;SDS011;64076;51.466;7.260;2023-02-12T07:05:17;20.33;;;15.57;;
75499;SDS011;64076;51.466;7.260;2023-02-12T07:07:43;20.58;;;15.63;;
75499;SDS011;64076;51.466;7.260;2023-02-12T07:10:09;19.05;;;15.93;;
75499;SDS011;64076;51.466;7.260;2023-02-12T07:12:35;19.73;;;15.47;;
75499;SDS011;64076;51.466;7.260;2023-02-12T07:15:01;20.85;;;15.73;;
75499;SDS011;64076;51.466;7.260;2023-02-12T07:17:28;19.38;;;15.20;;
75499;SDS011;64076;51.466;7.260;2023-02-12T07:19:54;19.80;;;14.80;;
75499;SDS011;64076;51.466;7.260;2023-02-12T07:22:20;20.10;;;15.97;;
75499;SDS011;64076;51.466;7.260;2023-02-12T07:24:46;20.38;;;15.93;;
75499;SDS011;64076;51.466;7.260;2023-02-12T07:27:12;20.58;;;15.15;;
75499;SDS011;64076;51.466;7.260;2023-02-12T07:29:38;19.92;;;15.27;;
75499;SDS011;64076;51.466;7.260;2023-02-12T07:32:04;19.63;;;15.37;;
75499;SDS011;64076;51.466;7.260;2023-02-12T07:34:30;20.50;;;15.80;;
75499;SDS011;64076;51.466;7.260;2023-02-12T07:36:56;20.33;;;15.98;;
75499;SDS011;64076;51.466;7.260;2023-02-12T07:39:22;18.60;;;15.23;;
75499;SDS011;64076;51.466;7.260;2023-02-12T07:41:49;18.63;;;15.10;;
75499;SDS011;64076;51.466;7.260;2023-02-12T07:44:15;18.63;;;15.40;;
75499;SDS011;64076;51.466;7.260;2023-02-12T07:46:41;18.67;;;15.13;;
75499;SDS011;64076;51.466;7.260;2023-02-12T07:49:11;19.80;;;15.25;;
75499;SDS011;64076;51.466;7.260;2023-02-12T07:51:37;20.00;;;15.05;;
75499;SDS011;64076;51.466;7.260;2023-02-12T07:54:03;18.77;;;14.70;;
75499;SDS011;64076;51.466;7.260;2023-02-12T07:56:31;19.08;;;14.65;;
75499;SDS011;64076;51.466;7.260;2023-02-12T07:59:00;19.30;;;14.75;;
75499;SDS011;64076;51.466;7.260;2023-02-12T08:01:30;19.17;;;14.68;;
75499;SDS011;64076;51.466;7.260;2023-02-12T08:03:57;18.70;;;14.73;;
75499;SDS011;64076;51.466;7.260;2023-02-12T08:06:24;19.40;;;14.13;;
75499;SDS011;64076;51.466;7.260;2023-02-12T08:08:54;17.83;;;14.98;;
75499;SDS011;64076;51.466;7.260;2023-02-12T08:11:21;18.05;;;14.68;;
75499;SDS011;64076;51.466;7.260;2023-02-12T08:13:47;19.77;;;15.27;;
75499;SDS011;64076;51.466;7.260;2023-02-12T08:16:15;17.58;;;15.27;;
75499;SDS011;64076;51.466;7.260;2023-02-12T08:18:41;19.40;;;14.87;;
75499;SDS011;64076;51.466;7.260;2023-02-12T08:21:08;20.25;;;14.80;;
75499;SDS011;64076;51.466;7.260;2023-02-12T08:23:34;19.33;;;15.23;;
75499;SDS011;64076;51.466;7.260;2023-02-12T08:26:13;18.10;;;14.38;;
75499;SDS011;64076;51.466;7.260;2023-02-12T08:28:41;20.35;;;14.82;;
75499;SDS011;64076;51.466;7.260;2023-02-12T08:31:18;18.50;;;14.63;;
75499;SDS011;64076;51.466;7.260;2023-02-12T08:33:44;20.27;;;14.75;;
75499;SDS011;64076;51.466;7.260;2023-02-12T08:36:11;20.75;;;15.10;;
75499;SDS011;64076;51.466;7.260;2023-02-12T08:38:38;17.92;;;14.65;;
75499;SDS011;64076;51.466;7.260;2023-02-12T08:41:05;19.20;;;14.98;;
75499;SDS011;64076;51.466;7.260;2023-02-12T08:43:32;18.30;;;14.37;;
75499;SDS011;64076;51.466;7.260;2023-02-12T08:46:31;18.58;;;14.68;;
75499;SDS011;64076;51.466;7.260;2023-02-12T08:48:54;20.17;;;15.15;;
75499;SDS011;64076;51.466;7.260;2023-02-12T08:51:22;19.13;;;14.85;;
75499;SDS011;64076;51.466;7.260;2023-02-12T08:53:51;17.20;;;14.32;;
75499;SDS011;64076;51.466;7.260;2023-02-12T08:56:17;19.50;;;15.10;;
75499;SDS011;64076;51.466;7.260;2023-02-12T08:58:43;18.35;;;14.52;;
75499;SDS011;64076;51.466;7.260;2023-02-12T09:01:11;18.13;;;14.55;;
75499;SDS011;64076;51.466;7.260;2023-02-12T09:03:37;19.02;;;14.57;;
75499;SDS011;64076;51.466;7.260;2023-02-12T09:06:04;18.20;;;14.57;;
75499;SDS011;64076;51.466;7.260;2023-02-12T09:08:31;19.53;;;14.83;;
75499;SDS011;64076;51.466;7.260;2023-02-12T09:10:57;19.55;;;14.75;;
75499;SDS011;64076;51.466;7.260;2023-02-12T09:13:23;18.02;;;14.60;;
75499;SDS011;64076;51.466;7.260;2023-02-12T09:15:50;18.15;;;14.85;;
75499;SDS011;64076;51.466;7.260;2023-02-12T09:18:16;18.00;;;14.25;;
75499;SDS011;64076;51.466;7.260;2023-02-12T09:20:42;19.23;;;14.20;;
75499;SDS011;64076;51.466;7.260;2023-02-12T09:23:10;19.90;;;14.88;;
75499;SDS011;64076;51.466;7.260;2023-02-12T09:25:40;17.55;;;14.40;;
75499;SDS011;64076;51.466;7.260;2023-02-12T09:28:06;19.95;;;14.48;;
75499;SDS011;64076;51.466;7.260;2023-02-12T09:30:33;18.17;;;14.63;;
75499;SDS011;64076;51.466;7.260;2023-02-12T09:32:58;18.03;;;13.90;;
75499;SDS011;64076;51.466;7.260;2023-02-12T09:35:24;18.23;;;14.07;;
75499;SDS011;64076;51.466;7.260;2023-02-12T09:37:51;16.67;;;13.85;;
75499;SDS011;64076;51.466;7.260;2023-02-12T09:40:26;17.42;;;13.30;;
75499;SDS011;64076;51.466;7.260;2023-02-12T09:45:54;16.60;;;13.55;;
75499;SDS011;64076;51.466;7.260;2023-02-12T09:48:29;16.40;;;13.35;;
75499;SDS011;64076;51.466;7.260;2023-02-12T09:50:58;18.63;;;14.02;;
75499;SDS011;64076;51.466;7.260;2023-02-12T09:53:26;15.95;;;13.32;;
75499;SDS011;64076;51.466;7.260;2023-02-12T09:55:54;18.20;;;14.77;;
75499;SDS011;64076;51.466;7.260;2023-02-12T09:58:33;16.70;;;13.48;;
75499;SDS011;64076;51.466;7.260;2023-02-12T10:01:00;18.40;;;13.95;;
75499;SDS011;64076;51.466;7.260;2023-02-12T10:03:30;17.13;;;13.38;;
75499;SDS011;64076;51.466;7.260;2023-02-12T10:06:04;15.82;;;13.30;;
75499;SDS011;64076;51.466;7.260;2023-02-12T10:08:37;16.63;;;13.67;;
75499;SDS011;64076;51.466;7.260;2023-02-12T10:13:45;15.32;;;12.70;;
75499;SDS011;64076;51.466;7.260;2023-02-12T10:26:54;17.10;;;12.98;;
75499;SDS011;64076;51.466;7.260;2023-02-12T10:29:24;15.65;;;12.82;;
75499;SDS011;64076;51.466;7.260;2023-02-12T10:31:54;15.50;;;12.70;;
75499;SDS011;64076;51.466;7.260;2023-02-12T10:34:26;16.87;;;12.97;;
75499;SDS011;64076;51.466;7.260;2023-02-12T10:36:55;16.52;;;13.60;;
75499;SDS011;64076;51.466;7.260;2023-02-12T10:39:25;17.33;;;13.15;;
75499;SDS011;64076;51.466;7.260;2023-02-12T10:41:56;16.08;;;12.75;;
75499;SDS011;64076;51.466;7.260;2023-02-12T10:44:23;15.35;;;12.20;;
75499;SDS011;64076;51.466;7.260;2023-02-12T10:46:49;15.27;;;13.00;;
75499;SDS011;64076;51.466;7.260;2023-02-12T10:49:16;14.05;;;12.10;;
75499;SDS011;64076;51.466;7.260;2023-02-12T10:51:47;16.08;;;13.02;;
75499;SDS011;64076;51.466;7.260;2023-02-12T10:56:57;15.07;;;12.75;;
75499;SDS011;64076;51.466;7.260;2023-02-12T10:59:23;15.47;;;12.57;;
75499;SDS011;64076;51.466;7.260;2023-02-12T11:01:49;14.15;;;11.90;;
75499;SDS011;64076;51.466;7.260;2023-02-12T11:04:20;14.73;;;12.27;;
75499;SDS011;64076;51.466;7.260;2023-02-12T11:07:22;14.70;;;12.40;;
75499;SDS011;64076;51.466;7.260;2023-02-12T11:09:42;15.57;;;12.75;;
75499;SDS011;64076;51.466;7.260;2023-02-12T11:12:16;14.60;;;12.63;;
75499;SDS011;64076;51.466;7.260;2023-02-12T11:14:47;17.13;;;12.98;;
75499;SDS011;64076;51.466;7.260;2023-02-12T11:17:17;15.25;;;11.95;;
75499;SDS011;64076;51.466;7.260;2023-02-12T11:19:44;14.88;;;11.90;;
75499;SDS011;64076;51.466;7.260;2023-02-12T11:22:13;14.10;;;11.90;;
75499;SDS011;64076;51.466;7.260;2023-02-12T11:24:43;15.83;;;12.10;;
75499;SDS011;64076;51.466;7.260;2023-02-12T11:29:37;16.25;;;11.93;;
75499;SDS011;64076;51.466;7.260;2023-02-12T11:32:05;15.27;;;12.35;;
75499;SDS011;64076;51.466;7.260;2023-02-12T11:34:34;15.60;;;11.77;;
75499;SDS011;64076;51.466;7.260;2023-02-12T11:37:00;14.10;;;11.80;;
75499;SDS011;64076;51.466;7.260;2023-02-12T11:39:27;14.10;;;11.98;;
75499;SDS011;64076;51.466;7.260;2023-02-12T11:41:54;14.50;;;11.70;;
75499;SDS011;64076;51.466;7.260;2023-02-12T11:44:27;16.05;;;12.30;;
75499;SDS011;64076;51.466;7.260;2023-02-12T11:46:58;13.38;;;11.40;;
75499;SDS011;64076;51.466;7.260;2023-02-12T11:49:29;14.20;;;11.90;;
75499;SDS011;64076;51.466;7.260;2023-02-12T11:51:56;14.90;;;11.95;;
75499;SDS011;64076;51.466;7.260;2023-02-12T11:54:23;14.40;;;11.60;;
75499;SDS011;64076;51.466;7.260;2023-02-12T11:56:51;14.35;;;12.15;;
75499;SDS011;64076;51.466;7.260;2023-02-12T12:01:46;14.47;;;11.67;;
75499;SDS011;64076;51.466;7.260;2023-02-12T12:04:13;14.18;;;11.88;;
75499;SDS011;64076;51.466;7.260;2023-02-12T12:11:46;13.32;;;11.40;;
75499;SDS011;64076;51.466;7.260;2023-02-12T12:19:40;15.68;;;13.05;;
75499;SDS011;64076;51.466;7.260;2023-02-12T12:22:25;14.93;;;11.57;;
75499;SDS011;64076;51.466;7.260;2023-02-12T12:27:40;15.23;;;11.37;;
75499;SDS011;64076;51.466;7.260;2023-02-12T12:38:34;15.52;;;12.32;;
75499;SDS011;64076;51.466;7.260;2023-02-12T12:41:13;14.90;;;11.20;;
75499;SDS011;64076;51.466;7.260;2023-02-12T12:43:49;13.30;;;11.27;;
75499;SDS011;64076;51.466;7.260;2023-02-12T12:49:13;14.88;;;11.55;;
75499;SDS011;64076;51.466;7.260;2023-02-12T12:51:52;13.95;;;11.82;;
75499;SDS011;64076;51.466;7.260;2023-02-12T12:57:12;14.90;;;11.57;;
75499;SDS011;64076;51.466;7.260;2023-02-12T13:10:15;14.82;;;11.30;;
75499;SDS011;64076;51.466;7.260;2023-02-12T13:20:41;15.73;;;11.95;;
75499;SDS011;64076;51.466;7.260;2023-02-12T13:23:44;12.77;;;11.07;;
75499;SDS011;64076;51.466;7.260;2023-02-12T13:26:08;15.15;;;12.30;;
75499;SDS011;64076;51.466;7.260;2023-02-12T13:28:36;15.32;;;12.32;;
75499;SDS011;64076;51.466;7.260;2023-02-12T13:31:05;15.27;;;11.70;;
75499;SDS011;64076;51.466;7.260;2023-02-12T13:35:59;14.07;;;11.63;;
75499;SDS011;64076;51.466;7.260;2023-02-12T13:38:27;14.52;;;12.02;;
75499;SDS011;64076;51.466;7.260;2023-02-12T13:40:57;15.03;;;11.13;;
75499;SDS011;64076;51.466;7.260;2023-02-12T13:56:46;13.45;;;11.52;;
75499;SDS011;64076;51.466;7.260;2023-02-12T14:02:01;13.02;;;11.30;;
75499;SDS011;64076;51.466;7.260;2023-02-12T14:04:31;13.82;;;11.18;;
75499;SDS011;64076;51.466;7.260;2023-02-12T14:14:52;14.05;;;11.80;;
75499;SDS011;64076;51.466;7.260;2023-02-12T14:27:43;14.90;;;12.02;;
75499;SDS011;64076;51.466;7.260;2023-02-12T14:37:56;13.48;;;11.60;;
75499;SDS011;64076;51.466;7.260;2023-02-12T14:40:44;12.68;;;11.20;;
75499;SDS011;64076;51.466;7.260;2023-02-12T14:51:39;14.00;;;11.38;;
75499;SDS011;64076;51.466;7.260;2023-02-12T14:54:13;14.20;;;11.10;;
75499;SDS011;64076;51.466;7.260;2023-02-12T14:56:46;14.43;;;11.43;;
75499;SDS011;64076;51.466;7.260;2023-02-12T14:59:18;13.38;;;11.77;;
75499;SDS011;64076;51.466;7.260;2023-02-12T15:01:47;13.25;;;10.60;;
75499;SDS011;64076;51.466;7.260;2023-02-12T15:04:16;14.85;;;11.18;;
75499;SDS011;64076;51.466;7.260;2023-02-12T15:06:56;14.05;;;11.88;;
75499;SDS011;64076;51.466;7.260;2023-02-12T15:09:31;14.03;;;12.03;;
75499;SDS011;64076;51.466;7.260;2023-02-12T15:15:20;11.90;;;10.60;;
75499;SDS011;64076;51.466;7.260;2023-02-12T15:20:59;12.75;;;10.90;;
75499;SDS011;64076;51.466;7.260;2023-02-12T15:23:45;12.93;;;10.77;;
75499;SDS011;64076;51.466;7.260;2023-02-12T15:26:15;14.23;;;11.40;;
75499;SDS011;64076;51.466;7.260;2023-02-12T15:28:45;13.23;;;10.77;;
75499;SDS011;64076;51.466;7.260;2023-02-12T15:31:13;13.02;;;10.75;;
75499;SDS011;64076;51.466;7.260;2023-02-12T15:33:40;13.02;;;11.13;;
75499;SDS011;64076;51.466;7.260;2023-02-12T15:36:10;15.10;;;11.33;;
75499;SDS011;64076;51.466;7.260;2023-02-12T15:38:50;13.93;;;10.98;;
75499;SDS011;64076;51.466;7.260;2023-02-12T15:41:34;12.65;;;10.65;;
75499;SDS011;64076;51.466;7.260;2023-02-12T15:47:08;12.55;;;10.93;;
75499;SDS011;64076;51.466;7.260;2023-02-12T15:49:36;14.77;;;11.77;;
75499;SDS011;64076;51.466;7.260;2023-02-12T15:52:05;12.82;;;11.18;;
75499;SDS011;64076;51.466;7.260;2023-02-12T15:54:35;13.18;;;10.73;;
75499;SDS011;64076;51.466;7.260;2023-02-12T15:57:01;12.40;;;10.57;;
75499;SDS011;64076;51.466;7.260;2023-02-12T15:59:35;13.52;;;11.32;;
75499;SDS011;64076;51.466;7.260;2023-02-12T16:02:01;12.20;;;10.87;;
75499;SDS011;64076;51.466;7.260;2023-02-12T16:04:31;12.10;;;10.80;;
75499;SDS011;64076;51.466;7.260;2023-02-12T16:07:01;13.57;;;11.00;;
75499;SDS011;64076;51.466;7.260;2023-02-12T16:09:28;13.90;;;11.48;;
75499;SDS011;64076;51.466;7.260;2023-02-12T16:11:55;13.25;;;10.93;;
75499;SDS011;64076;51.466;7.260;2023-02-12T16:14:23;12.70;;;10.13;;
75499;SDS011;64076;51.466;7.260;2023-02-12T16:16:50;14.57;;;11.23;;
75499;SDS011;64076;51.466;7.260;2023-02-12T16:19:20;12.18;;;10.60;;
75499;SDS011;64076;51.466;7.260;2023-02-12T16:21:47;13.02;;;11.32;;
75499;SDS011;64076;51.466;7.260;2023-02-12T16:24:19;12.27;;;10.95;;
75499;SDS011;64076;51.466;7.260;2023-02-12T16:26:45;13.47;;;11.03;;
75499;SDS011;64076;51.466;7.260;2023-02-12T16:29:12;12.02;;;10.40;;
75499;SDS011;64076;51.466;7.260;2023-02-12T16:31:44;14.88;;;11.40;;
75499;SDS011;64076;51.466;7.260;2023-02-12T16:34:36;14.95;;;11.65;;
75499;SDS011;64076;51.466;7.260;2023-02-12T16:42:44;13.50;;;10.98;;
75499;SDS011;64076;51.466;7.260;2023-02-12T16:47:59;12.75;;;10.85;;
75499;SDS011;64076;51.466;7.260;2023-02-12T16:50:28;14.80;;;11.27;;
75499;SDS011;64076;51.466;7.260;2023-02-12T16:53:38;14.37;;;11.93;;
75499;SDS011;64076;51.466;7.260;2023-02-12T16:55:58;14.57;;;11.27;;
75499;SDS011;64076;51.466;7.260;2023-02-12T16:58:27;13.25;;;10.82;;
75499;SDS011;64076;51.466;7.260;2023-02-12T17:00:53;12.60;;;10.60;;
75499;SDS011;64076;51.466;7.260;2023-02-12T17:03:21;13.88;;;11.43;;
75499;SDS011;64076;51.466;7.260;2023-02-12T17:05:48;13.70;;;10.93;;
75499;SDS011;64076;51.466;7.260;2023-02-12T17:08:16;13.25;;;10.88;;
75499;SDS011;64076;51.466;7.260;2023-02-12T17:10:42;13.10;;;10.88;;
75499;SDS011;64076;51.466;7.260;2023-02-12T17:13:09;13.68;;;11.57;;
75499;SDS011;64076;51.466;7.260;2023-02-12T17:15:42;13.20;;;11.60;;
75499;SDS011;64076;51.466;7.260;2023-02-12T17:18:23;14.60;;;11.47;;
75499;SDS011;64076;51.466;7.260;2023-02-12T17:20:56;13.75;;;11.27;;
75499;SDS011;64076;51.466;7.260;2023-02-12T17:23:24;14.23;;;12.25;;
75499;SDS011;64076;51.466;7.260;2023-02-12T17:25:50;13.82;;;11.43;;
75499;SDS011;64076;51.466;7.260;2023-02-12T17:28:16;14.05;;;11.90;;
75499;SDS011;64076;51.466;7.260;2023-02-12T17:30:42;15.97;;;11.60;;